West Ferrisburgh, Vermont
Current Conditions -  °F | °C
As of 8:35 AM on Thursday 30 Oct 2014 (Local Time) from K6B0 Reporting Station
Moderate Rain Moderate Rain  
Wind Chill:   Ceiling: 3400
Heat Index:   Visibility: 7mi
Dew Point:   Wind: 0mph
Humidity: 96%   Direction: NA
Pressure: 29.94"   Gusts: NA
Location:  44.0804°N, 73.3324°W
Report Text: K6B0 301235Z AUTO 00000KT 7SM RA SCT026 BKN034 OVC040 07/07 A2994 RMK AO2 P0001 T00730067
Loading
Personal Weather Stations






























Interactive Weather Map
Tropical Storm Tracking
New forecast layout! Learn more

10-Day Weather Forecast

Advertisements
Track Severe Weather on mobile